Airfield :
LOGIN :

Register | Disclaimer

   EN    FR    IT 

 










Legend :    VFR   Marginal VFR   IFR   Intensive IFR   Very Intensive IFR
Visi :
Ceiling :
>= 8 km
>= 3000ft
5 to 8 km
1000 to 3000 ft
1500m to 5 km
500 to 1000 ft
800 to 1500m
200 to 500 ft
< 800m
< 200 ft
Symbols :   Thunderstorms  Fog  Heavy snow  Heavy precipitations  Wind > 20 kt
SIGMETs :     Misc.  Thunderstorms  Icing  Turbulence  Mountain Waves  Volcanic Ashes







- Airport Elevation : 3 ft
- IATA code : DHR


EHKD - Den Helder De Kooy

CURRENT METAR :
  • 261825Z AUTO 31008KT 280V340 9999 FEW010 OVC049 08/06 Q1031 BLU 32009KT 9999 SCT008 BKN011 OVC050 TEMPO FEW011 OVC050

EXPIRED METARs :
  • 261810Z AUTO 30009KT 270V340 9999 SCT009 BKN011 OVC049 07/06 Q1030 GRN 32009KT 9999 SCT008 BKN011 OVC050 TEMPO FEW011 OVC050
  • 261759Z AUTO 30009KT 270V340 9999 FEW009 SCT010 OVC049 08/06 Q1030 GRN 32009KT 9999 SCT008 BKN011 OVC050 TEMPO FEW011 OVC050
  • 261730Z AUTO 31006KT 270V340 9999 FEW009 OVC050 08/06 Q1030 BLU 32009KT 9999 SCT008 BKN011 OVC050 TEMPO FEW011 OVC050
  • 261655Z AUTO 30009KT 270V340 9999 FEW009 BKN010 OVC051 08/06 Q1030 GRN 31010KT 9999 SCT009 OVC050 TEMPO FEW009 OVC050
  • 261640Z AUTO 29009KT 240V320 9999 SCT009 BKN010 OVC052 08/06 Q1030 GRN 30010KT CAVOK TEMPO 9999 SCT009 OVC050
  • 261625Z AUTO 29009KT 9999 FEW008 OVC050 08/06 Q1030 BLU 29011KT CAVOK TEMPO 9999 SCT010 OVC050
  • 261555Z AUTO 29009KT 250V320 9999 FEW009 OVC054 08/06 Q1030 BLU 29011KT CAVOK TEMPO 9999 SCT010 OVC050

TAF TAF EHKD
Valid from the 26 at 14:00 until the 27 at 02:00 UTC


261314Z 2614/2702 28010KT CAVOK
BECMG 2615/2617 32008KT
PROB30 2617/2621 9999 BKN010
BECMG 2700/2702 25004KT
No reported NOTAMs for that airfield.



MET'MAP, your aeronautical weather chart ! - Copyright ORBIFLY December 2007 - Disclaimer

ORBIFLY MET'MAP TEAM :

Programming & Development : Alexandra Zaïnal
Concept & Development : Baudouin d'Aumeries
Co-Development & Prog : Marc-Olivier Méhu
Technical & hardware support : Manuel Goepfert

Contact : metmap@orbifly.com




SOURCES & CREDITS :

   NOAA